Time;durP1;ratioP1;P1;durP2;ratioP2;P2;SDS_P1;SDS_P2;PMS_P1;PMS_P2;Temp;Humidity;BMP_temperature;BMP_pressure;BME280_temperature;BME280_humidity;BME280_pressure;Samples;Min_cycle;Max_cycle;Signal;HPM_P1;HPM_P2
2024/01/15 00:02:18;;;;;;;6.10;3.10;;;;;;;-0.82;79.52;94930.60;108647;1266;25294;-78
2024/01/15 00:04:52;;;;;;;6.30;3.90;;;;;;;-0.82;79.37;94929.57;108676;1269;22523;-79
2024/01/15 00:07:23;;;;;;;4.50;2.50;;;;;;;-0.81;79.14;94932.69;108678;1273;22524;-79
2024/01/15 00:09:54;;;;;;;5.90;2.80;;;;;;;-0.82;79.22;94923.27;108662;1274;25450;-78
2024/01/15 00:12:25;;;;;;;7.20;3.70;;;;;;;-0.83;79.18;94920.04;108625;1272;24166;-78
2024/01/15 00:14:58;;;;;;;6.70;4.10;;;;;;;-0.83;78.67;94919.58;108655;1274;24246;-78
2024/01/15 00:17:29;;;;;;;7.60;3.70;;;;;;;-0.83;78.66;94919.21;108703;1267;22527;-78
2024/01/15 00:20:00;;;;;;;6.80;3.90;;;;;;;-0.83;78.63;94913.85;108666;1274;24585;-78
2024/01/15 00:22:31;;;;;;;4.90;2.50;;;;;;;-0.84;78.72;94907.27;108661;1266;22539;-77
2024/01/15 00:25:03;;;;;;;4.60;3.10;;;;;;;-0.84;78.40;94910.16;108696;1274;22525;-77
2024/01/15 00:27:34;;;;;;;4.20;3.10;;;;;;;-0.84;78.42;94900.84;108658;1274;25357;-77
2024/01/15 00:30:06;;;;;;;7.70;4.00;;;;;;;-0.85;77.86;94904.25;108693;1274;22607;-77
2024/01/15 00:32:39;;;;;;;6.20;3.40;;;;;;;-0.84;78.40;94897.23;108697;1273;22663;-78
2024/01/15 00:35:11;;;;;;;3.90;2.70;;;;;;;-0.84;78.51;94896.91;108693;1274;22640;-77
2024/01/15 00:37:42;;;;;;;4.60;2.50;;;;;;;-0.87;78.32;94887.98;108618;1273;22528;-77
2024/01/15 00:40:16;;;;;;;7.70;3.30;;;;;;;-0.87;78.47;94877.80;108667;1274;22554;-78
2024/01/15 00:42:47;;;;;;;4.90;2.80;;;;;;;-0.87;78.24;94874.98;108724;1274;22534;-77
2024/01/15 00:45:18;;;;;;;5.40;2.70;;;;;;;-0.86;77.99;94874.73;108649;1274;23373;-77
2024/01/15 00:47:49;;;;;;;5.10;2.40;;;;;;;-0.85;77.72;94868.61;108673;1273;24394;-77
2024/01/15 00:50:20;;;;;;;6.40;3.90;;;;;;;-0.83;77.61;94866.55;108563;1272;123715;-77
2024/01/15 00:52:51;;;;;;;5.70;3.40;;;;;;;-0.83;77.65;94859.42;108659;1269;22606;-77
2024/01/15 00:55:22;;;;;;;8.40;4.30;;;;;;;-0.83;77.81;94854.99;108647;1269;22531;-77
2024/01/15 00:57:53;;;;;;;6.20;2.90;;;;;;;-0.86;77.37;94843.41;108695;1274;22603;-77
2024/01/15 01:00:24;;;;;;;5.80;3.20;;;;;;;-0.86;77.36;94851.16;108662;1272;22540;-77
2024/01/15 01:02:58;;;;;;;6.80;3.40;;;;;;;-0.87;77.14;94846.69;108693;1274;22518;-77
2024/01/15 01:05:31;;;;;;;7.50;4.00;;;;;;;-0.87;77.41;94843.34;108640;1266;22515;-77
2024/01/15 01:08:02;;;;;;;5.60;3.50;;;;;;;-0.90;77.43;94839.64;108637;1272;22642;-77
2024/01/15 01:10:33;;;;;;;6.80;3.80;;;;;;;-0.90;77.26;94835.17;108620;1271;22646;-77
2024/01/15 01:13:07;;;;;;;7.30;3.60;;;;;;;-0.94;77.63;94839.31;108708;1269;22534;-77
2024/01/15 01:15:38;;;;;;;6.40;3.60;;;;;;;-0.95;77.20;94840.30;108680;1274;22587;-77
2024/01/15 01:18:12;;;;;;;5.90;3.30;;;;;;;-0.94;77.54;94832.96;108672;1269;24222;-77
2024/01/15 01:20:43;;;;;;;7.40;4.40;;;;;;;-0.95;77.16;94830.73;108636;1266;22528;-77
2024/01/15 01:23:13;;;;;;;4.60;3.10;;;;;;;-0.98;77.04;94820.96;108664;1267;22564;-77
2024/01/15 01:25:45;;;;;;;4.90;3.10;;;;;;;-1.02;77.27;94817.70;108709;1266;22530;-77
2024/01/15 01:28:15;;;;;;;7.40;4.50;;;;;;;-1.04;77.43;94819.98;108641;1271;22539;-77
2024/01/15 01:30:46;;;;;;;7.90;4.20;;;;;;;-1.05;77.51;94815.19;108685;1269;22528;-77
2024/01/15 01:33:17;;;;;;;7.80;4.20;;;;;;;-1.07;77.51;94812.21;108660;1274;22531;-77
2024/01/15 01:35:50;;;;;;;9.50;4.60;;;;;;;-1.06;77.56;94816.07;108703;1272;22759;-77
2024/01/15 01:38:21;;;;;;;7.60;4.20;;;;;;;-1.05;77.35;94804.79;108581;1274;25406;-76
2024/01/15 01:40:52;;;;;;;8.20;4.20;;;;;;;-1.04;77.60;94803.71;108684;1272;22535;-77
2024/01/15 01:43:24;;;;;;;6.00;2.90;;;;;;;-1.04;77.40;94797.88;108685;1269;22539;-76
2024/01/15 01:45:57;;;;;;;7.30;4.10;;;;;;;-1.07;77.52;94787.46;108652;1270;25490;-77
2024/01/15 01:48:29;;;;;;;7.40;4.50;;;;;;;-1.09;77.48;94784.27;108630;1273;22651;-77
2024/01/15 01:51:03;;;;;;;7.90;4.30;;;;;;;-1.12;77.48;94783.11;108670;1274;22542;-77
2024/01/15 01:53:38;;;;;;;7.70;4.70;;;;;;;-1.16;77.65;94784.58;108670;1266;24451;-76
2024/01/15 01:56:10;;;;;;;9.10;4.50;;;;;;;-1.16;77.68;94780.37;108684;1274;24323;-76
2024/01/15 01:58:41;;;;;;;8.90;4.40;;;;;;;-1.16;77.50;94775.53;108655;1266;23129;-76
2024/01/15 02:01:13;;;;;;;9.00;3.20;;;;;;;-1.16;77.72;94772.25;108718;1274;22578;-77
2024/01/15 02:03:49;;;;;;;8.50;4.70;;;;;;;-1.17;77.74;94767.32;108680;1273;22532;-77
2024/01/15 02:06:19;;;;;;;10.10;4.80;;;;;;;-1.18;77.65;94762.05;108689;1272;22511;-77
2024/01/15 02:08:52;;;;;;;6.30;3.50;;;;;;;-1.20;77.89;94760.70;108666;1271;23002;-77
2024/01/15 02:11:26;;;;;;;8.00;4.30;;;;;;;-1.17;77.61;94747.81;108679;1274;24364;-77
2024/01/15 02:13:57;;;;;;;7.60;4.00;;;;;;;-1.15;77.53;94748.98;108684;1274;22598;-77
2024/01/15 02:16:28;;;;;;;7.60;4.20;;;;;;;-1.15;77.48;94746.06;108658;1269;22538;-77
2024/01/15 02:18:58;;;;;;;6.40;2.30;;;;;;;-1.18;77.44;94747.65;108654;1274;22741;-77
2024/01/15 02:21:31;;;;;;;6.50;3.90;;;;;;;-1.21;77.35;94744.10;108658;1269;22520;-77
2024/01/15 02:24:02;;;;;;;6.60;3.40;;;;;;;-1.21;77.17;94737.51;108697;1273;22538;-76
2024/01/15 02:26:35;;;;;;;3.90;2.20;;;;;;;-1.23;77.25;94736.08;108667;1274;25297;-77
2024/01/15 02:29:08;;;;;;;6.30;2.80;;;;;;;-1.25;77.20;94738.89;108643;1274;22542;-76
2024/01/15 02:31:41;;;;;;;3.90;1.90;;;;;;;-1.28;77.05;94737.23;108672;1274;22520;-76
2024/01/15 02:34:14;;;;;;;4.90;2.50;;;;;;;-1.27;77.03;94734.29;108690;1269;24297;-76
2024/01/15 02:36:45;;;;;;;4.60;2.80;;;;;;;-1.25;76.68;94728.13;108673;1273;25348;-76
2024/01/15 02:39:19;;;;;;;6.00;2.60;;;;;;;-1.26;76.98;94721.04;108714;1274;23693;-77
2024/01/15 02:41:52;;;;;;;5.30;2.80;;;;;;;-1.30;76.93;94721.22;108660;1266;22530;-76
2024/01/15 02:44:26;;;;;;;3.50;2.30;;;;;;;-1.35;76.75;94719.26;108638;1272;22554;-77
2024/01/15 02:46:57;;;;;;;4.40;2.20;;;;;;;-1.38;76.84;94712.23;108633;1274;25485;-77
2024/01/15 02:49:28;;;;;;;6.10;2.80;;;;;;;-1.38;76.84;94709.37;108617;1274;22563;-77
2024/01/15 02:52:04;;;;;;;6.00;3.20;;;;;;;-1.38;76.80;94708.59;108587;1266;25245;-76
2024/01/15 02:54:37;;;;;;;5.20;3.40;;;;;;;-1.40;76.88;94707.48;108578;1274;22540;-77
2024/01/15 02:57:09;;;;;;;6.30;3.10;;;;;;;-1.42;76.80;94699.30;108583;1273;27518;-77
2024/01/15 02:59:40;;;;;;;5.40;3.20;;;;;;;-1.43;77.12;94695.91;108560;1274;25435;-77
2024/01/15 03:02:13;;;;;;;4.50;2.30;;;;;;;-1.41;77.01;94690.41;108620;1266;25282;-77
2024/01/15 03:04:47;;;;;;;8.30;3.30;;;;;;;-1.36;77.14;94686.98;108662;1274;22670;-76
2024/01/15 03:07:18;;;;;;;4.70;2.30;;;;;;;-1.33;76.96;94693.28;108640;1274;22520;-76
2024/01/15 03:09:54;;;;;;;5.30;2.30;;;;;;;-1.33;76.89;94686.78;108676;1272;22531;-76
2024/01/15 03:12:25;;;;;;;4.00;2.20;;;;;;;-1.31;76.88;94690.54;108701;1272;22527;-77
2024/01/15 03:14:56;;;;;;;4.90;3.10;;;;;;;-1.32;76.90;94679.09;108607;1271;22544;-77
2024/01/15 03:17:32;;;;;;;7.70;3.50;;;;;;;-1.33;76.87;94675.98;108585;1272;23384;-76
2024/01/15 03:20:03;;;;;;;6.80;3.60;;;;;;;-1.32;76.84;94669.95;108597;1274;23249;-77
2024/01/15 03:22:38;;;;;;;6.80;3.00;;;;;;;-1.30;76.77;94672.39;108691;1274;22711;-76
2024/01/15 03:25:10;;;;;;;4.90;2.90;;;;;;;-1.34;76.64;94663.69;108604;1272;23041;-76
2024/01/15 03:27:46;;;;;;;6.70;3.90;;;;;;;-1.43;76.87;94663.33;108614;1274;25240;-77
2024/01/15 03:30:22;;;;;;;3.80;2.20;;;;;;;-1.51;76.96;94657.67;108692;1266;24221;-77
2024/01/15 03:32:53;;;;;;;4.90;3.20;;;;;;;-1.56;77.08;94647.91;108655;1273;22534;-76
2024/01/15 03:35:29;;;;;;;4.70;2.80;;;;;;;-1.57;77.06;94655.43;108805;1272;22566;-76
2024/01/15 03:38:04;;;;;;;4.10;2.30;;;;;;;-1.58;77.02;94647.70;108737;1274;24624;-75
2024/01/15 03:40:35;;;;;;;6.00;3.50;;;;;;;-1.58;77.23;94647.38;108675;1266;22531;-77
2024/01/15 03:43:06;;;;;;;7.90;2.70;;;;;;;-1.59;77.12;94644.05;108619;1274;22539;-77
2024/01/15 03:45:40;;;;;;;5.50;3.30;;;;;;;-1.54;76.92;94647.83;108637;1274;22524;-76
2024/01/15 03:48:13;;;;;;;4.70;2.60;;;;;;;-1.51;76.79;94639.90;108597;1274;22781;-76
2024/01/15 03:50:44;;;;;;;4.90;2.10;;;;;;;-1.49;76.45;94642.41;108674;1274;23201;-76
2024/01/15 03:53:15;;;;;;;4.30;2.20;;;;;;;-1.47;76.54;94637.94;108658;1274;25275;-76
2024/01/15 03:55:46;;;;;;;3.70;2.40;;;;;;;-1.41;76.14;94642.97;108698;1272;24324;-75
2024/01/15 03:58:17;;;;;;;5.10;2.20;;;;;;;-1.38;76.00;94643.04;108664;1274;22561;-76
2024/01/15 04:00:48;;;;;;;5.30;2.70;;;;;;;-1.36;76.02;94638.17;108550;1276;22534;-76
2024/01/15 04:03:19;;;;;;;4.70;2.60;;;;;;;-1.35;76.00;94635.73;108584;1276;22578;-76
2024/01/15 04:05:50;;;;;;;5.90;3.10;;;;;;;-1.35;76.09;94634.02;108532;1276;22566;-76
2024/01/15 04:08:22;;;;;;;4.00;2.10;;;;;;;-1.37;75.91;94632.77;108543;1275;22590;-76
2024/01/15 04:10:52;;;;;;;5.20;2.60;;;;;;;-1.39;75.98;94627.14;108669;1274;22536;-76
2024/01/15 04:13:23;;;;;;;3.30;2.20;;;;;;;-1.39;75.90;94629.42;108664;1273;22999;-76
2024/01/15 04:15:54;;;;;;;4.40;1.90;;;;;;;-1.37;75.98;94625.84;108690;1274;22689;-77
2024/01/15 04:18:25;;;;;;;5.10;2.70;;;;;;;-1.36;75.45;94614.36;108614;1273;24302;-75
2024/01/15 04:20:58;;;;;;;3.60;2.30;;;;;;;-1.35;75.34;94609.02;108668;1269;22528;-76
2024/01/15 04:23:29;;;;;;;19.40;8.30;;;;;;;-1.41;75.28;94613.28;108679;1274;23874;-76
2024/01/15 04:26:00;;;;;;;9.00;4.00;;;;;;;-1.45;75.08;94618.88;108671;1272;22688;-76
2024/01/15 04:28:31;;;;;;;8.70;6.00;;;;;;;-1.47;74.91;94605.92;108677;1273;22748;-76
2024/01/15 04:31:02;;;;;;;4.90;2.40;;;;;;;-1.47;74.92;94603.38;108663;1266;22575;-76
2024/01/15 04:33:33;;;;;;;3.70;2.50;;;;;;;-1.45;74.53;94603.48;108628;1274;22541;-76
2024/01/15 04:36:10;;;;;;;4.10;2.10;;;;;;;-1.39;74.22;94606.02;108622;1274;22541;-76
2024/01/15 04:38:41;;;;;;;4.20;2.60;;;;;;;-1.37;74.47;94605.10;108646;1273;22538;-76
2024/01/15 04:41:14;;;;;;;4.10;2.30;;;;;;;-1.37;74.39;94596.69;108704;1269;22511;-76
2024/01/15 04:43:48;;;;;;;4.60;2.60;;;;;;;-1.40;74.01;94595.31;108664;1270;22584;-76
2024/01/15 04:46:19;;;;;;;3.70;2.20;;;;;;;-1.42;74.03;94593.84;108638;1272;23677;-76
2024/01/15 04:48:52;;;;;;;5.40;2.50;;;;;;;-1.38;74.21;94597.46;108650;1274;25303;-76
2024/01/15 04:51:23;;;;;;;3.40;2.30;;;;;;;-1.35;74.13;94600.95;108707;1273;22537;-76
2024/01/15 04:53:54;;;;;;;5.10;2.40;;;;;;;-1.37;74.02;94593.30;108649;1274;22540;-76
2024/01/15 04:56:25;;;;;;;5.10;3.20;;;;;;;-1.38;74.29;94594.95;108710;1274;24063;-76
2024/01/15 04:58:57;;;;;;;4.80;2.60;;;;;;;-1.39;74.28;94599.33;108647;1271;22540;-76
2024/01/15 05:01:30;;;;;;;3.10;1.50;;;;;;;-1.39;74.47;94601.10;108680;1274;22521;-76
2024/01/15 05:04:01;;;;;;;4.30;2.40;;;;;;;-1.38;74.66;94595.33;108664;1274;24260;-76
2024/01/15 05:06:32;;;;;;;3.70;2.10;;;;;;;-1.39;74.57;94596.63;108703;1274;22539;-76
2024/01/15 05:09:04;;;;;;;2.80;2.00;;;;;;;-1.38;74.77;94594.29;108636;1272;22689;-76
2024/01/15 05:11:37;;;;;;;3.50;2.00;;;;;;;-1.37;74.65;94591.27;108675;1266;22563;-76
2024/01/15 05:14:08;;;;;;;4.20;2.70;;;;;;;-1.36;74.69;94590.50;108669;1272;22570;-76
2024/01/15 05:16:41;;;;;;;2.20;1.50;;;;;;;-1.36;74.61;94592.63;108663;1274;23311;-76
2024/01/15 05:19:12;;;;;;;3.40;2.00;;;;;;;-1.34;74.88;94590.52;108651;1272;27027;-76
2024/01/15 05:21:43;;;;;;;4.00;2.60;;;;;;;-1.35;74.58;94584.69;108700;1272;25366;-76
2024/01/15 05:24:16;;;;;;;4.20;2.60;;;;;;;-1.36;74.43;94589.83;108663;1274;22533;-76
2024/01/15 05:26:47;;;;;;;6.00;3.10;;;;;;;-1.37;74.72;94586.60;108673;1271;22705;-76
2024/01/15 05:29:19;;;;;;;3.90;2.30;;;;;;;-1.35;74.75;94588.02;108619;1274;22603;-76
2024/01/15 05:31:50;;;;;;;4.20;1.90;;;;;;;-1.34;74.62;94581.20;108662;1274;22525;-76
2024/01/15 05:34:21;;;;;;;4.40;2.50;;;;;;;-1.37;74.47;94586.34;108686;1274;22547;-76
2024/01/15 05:36:53;;;;;;;3.70;2.10;;;;;;;-1.36;74.97;94581.88;108655;1272;22951;-76
2024/01/15 05:39:23;;;;;;;4.30;2.20;;;;;;;-1.34;74.78;94579.38;108632;1274;26281;-76
2024/01/15 05:42:04;;;;;;;4.40;2.30;;;;;;;-1.33;74.80;94581.94;108673;1274;22611;-76
2024/01/15 05:44:34;;;;;;;2.20;1.50;;;;;;;-1.31;74.74;94572.48;108670;1274;22518;-76
2024/01/15 05:47:06;;;;;;;3.60;1.60;;;;;;;-1.20;74.56;94567.85;108664;1272;22535;-76
2024/01/15 05:49:39;;;;;;;3.90;1.80;;;;;;;-1.13;74.46;94562.56;108632;1266;22562;-76
2024/01/15 05:52:12;;;;;;;2.50;1.50;;;;;;;-1.04;73.97;94556.52;108661;1274;22559;-76
2024/01/15 05:54:43;;;;;;;2.30;1.60;;;;;;;-0.96;73.31;94551.09;108680;1272;22577;-76
2024/01/15 05:57:14;;;;;;;1.80;1.20;;;;;;;-0.92;73.44;94551.61;108658;1274;22543;-76
2024/01/15 05:59:45;;;;;;;5.90;2.70;;;;;;;-0.91;73.69;94551.25;108685;1273;22523;-76
2024/01/15 06:02:16;;;;;;;4.60;2.20;;;;;;;-0.93;73.44;94553.59;108633;1274;26192;-76
2024/01/15 06:04:47;;;;;;;3.30;1.60;;;;;;;-0.94;73.44;94554.20;108684;1271;25407;-76
2024/01/15 06:07:18;;;;;;;4.70;1.60;;;;;;;-0.94;73.67;94553.02;108643;1272;22517;-76
2024/01/15 06:09:50;;;;;;;4.00;2.20;;;;;;;-0.93;73.61;94539.44;108579;1274;22515;-76
2024/01/15 06:12:21;;;;;;;4.10;2.30;;;;;;;-0.92;73.39;94534.13;108543;1270;22536;-76
2024/01/15 06:14:52;;;;;;;3.10;2.00;;;;;;;-0.92;73.24;94532.21;108694;1274;25368;-76
2024/01/15 06:17:23;;;;;;;4.30;2.20;;;;;;;-0.90;72.81;94527.63;108618;1274;25252;-76
2024/01/15 06:19:54;;;;;;;4.60;2.70;;;;;;;-0.93;73.18;94531.12;108693;1274;22511;-76
2024/01/15 06:22:25;;;;;;;4.60;2.00;;;;;;;-0.93;72.74;94538.30;108663;1273;24214;-76
2024/01/15 06:24:56;;;;;;;6.50;1.80;;;;;;;-0.91;72.36;94546.83;108656;1274;22538;-76
2024/01/15 06:27:27;;;;;;;4.30;2.20;;;;;;;-0.87;72.34;94549.32;108690;1274;25402;-76
2024/01/15 06:29:58;;;;;;;4.00;2.00;;;;;;;-0.87;72.34;94540.85;108607;1270;28420;-76
2024/01/15 06:32:30;;;;;;;4.50;2.30;;;;;;;-0.87;72.13;94549.27;108632;1274;22533;-76
2024/01/15 06:35:01;;;;;;;3.00;2.00;;;;;;;-0.87;72.32;94550.56;108695;1272;22532;-76
2024/01/15 06:37:32;;;;;;;4.80;2.80;;;;;;;-0.86;72.28;94548.54;108670;1264;22552;-76
2024/01/15 06:40:05;;;;;;;4.20;2.40;;;;;;;-0.90;72.77;94543.34;108675;1274;22665;-76
2024/01/15 06:42:36;;;;;;;4.00;2.60;;;;;;;-0.89;72.49;94547.19;108668;1268;22518;-76
2024/01/15 06:45:09;;;;;;;6.30;2.50;;;;;;;-0.89;72.74;94546.67;108648;1270;22523;-76
2024/01/15 06:47:41;;;;;;;2.90;2.00;;;;;;;-0.88;72.48;94546.36;108686;1274;23208;-76
2024/01/15 06:50:13;;;;;;;5.50;3.10;;;;;;;-0.88;72.53;94541.58;108743;1272;22568;-76
2024/01/15 06:52:44;;;;;;;5.30;2.90;;;;;;;-0.86;72.28;94547.35;108751;1273;22526;-77
2024/01/15 06:55:17;;;;;;;7.10;3.20;;;;;;;-0.83;72.33;94556.64;108602;1274;22536;-75
2024/01/15 06:57:48;;;;;;;5.10;2.30;;;;;;;-0.83;72.27;94560.02;108615;1274;22542;-81
2024/01/15 07:00:21;;;;;;;4.50;2.30;;;;;;;-0.85;72.20;94556.93;108650;1274;24278;-76
2024/01/15 07:02:52;;;;;;;5.10;2.60;;;;;;;-0.82;72.32;94562.98;108642;1267;22781;-76
2024/01/15 07:05:24;;;;;;;4.20;2.40;;;;;;;-0.79;71.91;94568.61;108671;1272;22553;-76
2024/01/15 07:07:55;;;;;;;4.40;2.50;;;;;;;-0.74;71.92;94572.83;108693;1253;22547;-76
2024/01/15 07:10:26;;;;;;;6.20;2.90;;;;;;;-0.76;72.28;94571.73;108590;1267;22545;-76
2024/01/15 07:12:59;;;;;;;4.00;2.50;;;;;;;-0.75;72.23;94569.48;108651;1267;25268;-77
2024/01/15 07:15:32;;;;;;;5.20;2.50;;;;;;;-0.73;71.88;94566.16;108676;1274;25354;-77
2024/01/15 07:18:06;;;;;;;7.40;3.40;;;;;;;-0.69;71.53;94573.68;108669;1267;24231;-77
2024/01/15 07:20:40;;;;;;;5.20;2.90;;;;;;;-0.67;71.65;94559.00;108670;1272;22539;-77
2024/01/15 07:23:11;;;;;;;6.90;3.00;;;;;;;-0.63;71.15;94560.88;108755;1270;24346;-76
2024/01/15 07:25:42;;;;;;;5.00;2.90;;;;;;;-0.58;70.88;94568.11;108769;1267;24199;-77
2024/01/15 07:28:13;;;;;;;5.20;3.20;;;;;;;-0.53;71.08;94563.55;108755;1272;22852;-77
2024/01/15 07:30:44;;;;;;;6.30;2.70;;;;;;;-0.40;71.38;94569.28;108734;1274;22544;-77
2024/01/15 07:33:16;;;;;;;4.60;2.90;;;;;;;0.01;71.42;94563.77;108751;1274;22573;-77
2024/01/15 07:35:47;;;;;;;6.50;3.40;;;;;;;0.41;70.49;94561.42;108779;1272;22562;-78
2024/01/15 07:38:18;;;;;;;6.00;3.40;;;;;;;0.57;69.36;94564.35;108719;1274;24382;-77
2024/01/15 07:40:49;;;;;;;5.50;2.80;;;;;;;0.68;69.40;94565.16;108573;1276;22538;-77
2024/01/15 07:43:24;;;;;;;8.10;3.70;;;;;;;0.67;68.55;94566.30;108579;1276;22541;-77
2024/01/15 07:45:57;;;;;;;5.50;2.80;;;;;;;0.48;68.42;94575.06;108659;1274;22550;-77
2024/01/15 07:48:28;;;;;;;4.30;2.40;;;;;;;0.37;68.30;94577.06;108601;1273;22544;-77
2024/01/15 07:50:59;;;;;;;7.10;4.40;;;;;;;0.22;68.21;94580.11;108762;1274;22514;-77
2024/01/15 07:53:30;;;;;;;7.40;4.10;;;;;;;0.00;68.04;94581.02;108757;1266;22511;-77
2024/01/15 07:56:01;;;;;;;6.50;3.50;;;;;;;-0.17;68.76;94587.37;108728;1272;22564;-77
2024/01/15 07:58:32;;;;;;;7.80;4.10;;;;;;;-0.22;69.07;94583.36;108731;1265;24771;-77
2024/01/15 08:01:04;;;;;;;6.40;3.30;;;;;;;-0.29;69.51;94599.34;108748;1274;22554;-76
2024/01/15 08:03:35;;;;;;;5.10;3.20;;;;;;;-0.32;69.74;94596.84;108651;1269;25257;-77
2024/01/15 08:06:09;;;;;;;8.30;4.30;;;;;;;-0.33;70.18;94594.85;108677;1267;24264;-77
2024/01/15 08:08:41;;;;;;;7.30;4.10;;;;;;;-0.39;70.02;94585.23;108709;1274;22528;-77
2024/01/15 08:11:12;;;;;;;4.80;2.80;;;;;;;-0.43;70.54;94583.65;108866;1274;22579;-77
2024/01/15 08:13:42;;;;;;;8.80;4.00;;;;;;;-0.42;70.63;94583.61;108802;1274;23759;-78
2024/01/15 08:16:14;;;;;;;5.60;3.00;;;;;;;-0.38;70.74;94576.84;108743;1267;22520;-76
2024/01/15 08:18:45;;;;;;;6.90;3.50;;;;;;;-0.39;71.11;94575.02;108733;1274;24224;-77
2024/01/15 08:21:16;;;;;;;6.60;3.80;;;;;;;-0.37;71.23;94576.59;108749;1274;25307;-76
2024/01/15 08:23:47;;;;;;;9.20;5.10;;;;;;;-0.33;71.32;94585.85;108679;1273;22563;-77
2024/01/15 08:26:18;;;;;;;5.40;3.40;;;;;;;-0.29;71.35;94578.30;108657;1274;24901;-77
2024/01/15 08:28:49;;;;;;;8.70;4.30;;;;;;;-0.26;71.13;94584.61;108705;1272;22539;-77
2024/01/15 08:31:20;;;;;;;7.20;4.10;;;;;;;-0.23;71.35;94579.56;108635;1273;22534;-76
2024/01/15 08:33:51;;;;;;;5.30;2.90;;;;;;;-0.24;71.29;94583.42;108688;1274;22528;-77
2024/01/15 08:36:22;;;;;;;6.00;4.20;;;;;;;-0.24;71.03;94582.52;108661;1267;22550;-77
2024/01/15 08:38:53;;;;;;;6.70;3.20;;;;;;;-0.21;71.24;94583.63;108652;1274;22654;-76
2024/01/15 08:41:24;;;;;;;7.60;4.00;;;;;;;-0.15;71.09;94578.88;108643;1266;22569;-77
2024/01/15 08:44:02;;;;;;;5.20;3.50;;;;;;;-0.12;71.20;94578.80;108789;1266;23686;-76
2024/01/15 08:46:33;;;;;;;4.80;2.50;;;;;;;-0.09;70.69;94572.11;108837;1273;22686;-76
2024/01/15 08:49:05;;;;;;;6.00;3.40;;;;;;;-0.06;70.60;94578.20;108716;1273;27387;-76
2024/01/15 08:51:39;;;;;;;3.90;2.90;;;;;;;-0.03;70.30;94576.99;108700;1273;22562;-76
2024/01/15 08:54:10;;;;;;;5.00;2.90;;;;;;;0.01;69.89;94579.72;108663;1266;22576;-76
2024/01/15 08:56:43;;;;;;;5.70;2.90;;;;;;;0.06;69.91;94586.54;108704;1270;22602;-76
2024/01/15 08:59:14;;;;;;;5.40;3.10;;;;;;;0.07;69.98;94593.94;108673;1269;26396;-76
2024/01/15 09:01:45;;;;;;;7.50;3.20;;;;;;;0.13;69.82;94603.87;108703;1273;22534;-76
2024/01/15 09:04:17;;;;;;;10.40;4.00;;;;;;;0.14;69.55;94608.72;108679;1273;23703;-77
2024/01/15 09:06:49;;;;;;;9.70;5.10;;;;;;;0.13;69.55;94617.38;108834;1273;22536;-78
2024/01/15 09:09:21;;;;;;;6.40;3.80;;;;;;;0.13;69.34;94613.77;108801;1267;23017;-75
2024/01/15 09:11:54;;;;;;;7.20;4.10;;;;;;;0.08;69.48;94620.45;108683;1273;22545;-76
2024/01/15 09:14:28;;;;;;;6.20;4.10;;;;;;;0.06;69.49;94624.52;108760;1273;24237;-75
2024/01/15 09:17:00;;;;;;;5.60;3.30;;;;;;;0.06;69.37;94618.95;108798;1270;22524;-74
2024/01/15 09:19:35;;;;;;;7.40;4.60;;;;;;;0.06;69.25;94615.45;108720;1270;24280;-76
2024/01/15 09:22:06;;;;;;;7.80;4.60;;;;;;;0.09;69.49;94618.16;108759;1273;25205;-75
2024/01/15 09:24:37;;;;;;;4.70;2.70;;;;;;;0.11;69.72;94618.57;108724;1273;22630;-76
2024/01/15 09:27:08;;;;;;;9.90;4.50;;;;;;;0.15;69.60;94621.76;108751;1267;24209;-74
2024/01/15 09:29:41;;;;;;;7.10;4.50;;;;;;;0.21;69.09;94626.60;108699;1273;22536;-73
2024/01/15 09:32:18;;;;;;;7.60;3.60;;;;;;;0.22;68.74;94623.41;108797;1273;25275;-74
2024/01/15 09:34:50;;;;;;;8.90;4.50;;;;;;;0.20;68.53;94622.59;108745;1270;22938;-75
2024/01/15 09:37:23;;;;;;;7.80;4.50;;;;;;;0.22;68.68;94621.59;108747;1273;24522;-74
2024/01/15 09:39:55;;;;;;;6.10;4.10;;;;;;;0.31;68.77;94624.30;108697;1267;23868;-76
2024/01/15 09:42:28;;;;;;;9.50;5.50;;;;;;;0.32;68.44;94626.29;108762;1273;25039;-75
2024/01/15 09:45:00;;;;;;;7.40;3.90;;;;;;;0.28;68.25;94630.13;108753;1273;25294;-75
2024/01/15 09:47:31;;;;;;;7.00;4.20;;;;;;;0.26;68.13;94622.84;108729;1273;22529;-75
2024/01/15 09:50:03;;;;;;;8.90;5.20;;;;;;;0.25;67.86;94614.23;108646;1274;25704;-75
2024/01/15 09:52:35;;;;;;;7.80;4.10;;;;;;;0.25;67.71;94615.33;108600;1273;22570;-76
2024/01/15 09:55:08;;;;;;;7.40;4.10;;;;;;;0.25;67.68;94622.27;108684;1271;22529;-76
2024/01/15 09:57:40;;;;;;;8.90;5.10;;;;;;;0.20;67.78;94617.85;108631;1267;24274;-75
2024/01/15 10:00:15;;;;;;;8.70;5.20;;;;;;;0.18;67.72;94614.62;108618;1267;25660;-75
2024/01/15 10:02:49;;;;;;;9.50;5.10;;;;;;;0.14;67.40;94612.53;108550;1267;22552;-76
2024/01/15 10:05:20;;;;;;;9.30;4.60;;;;;;;0.13;67.41;94622.52;108640;1273;22726;-75
2024/01/15 10:07:54;;;;;;;7.70;4.50;;;;;;;0.13;67.87;94624.51;108620;1273;24275;-75
2024/01/15 10:10:26;;;;;;;10.10;4.80;;;;;;;0.12;67.61;94621.75;108546;1271;22524;-75
2024/01/15 10:12:59;;;;;;;11.50;4.50;;;;;;;0.10;67.81;94621.13;108637;1266;25524;-75
2024/01/15 10:15:30;;;;;;;8.50;4.10;;;;;;;0.09;67.83;94621.34;108587;1267;24238;-75
2024/01/15 10:18:02;;;;;;;8.20;3.70;;;;;;;0.12;67.83;94622.16;108617;1270;22538;-75
2024/01/15 10:20:34;;;;;;;7.20;4.70;;;;;;;0.14;67.85;94617.42;108559;1267;22527;-75
2024/01/15 10:23:06;;;;;;;8.30;4.00;;;;;;;0.16;67.34;94616.92;108676;1267;22535;-75
2024/01/15 10:25:38;;;;;;;7.20;4.50;;;;;;;0.16;67.29;94613.22;108598;1274;22549;-75
2024/01/15 10:28:09;;;;;;;6.20;4.00;;;;;;;0.17;66.50;94607.48;108603;1267;22534;-75
2024/01/15 10:30:41;;;;;;;9.90;4.60;;;;;;;0.21;67.03;94612.11;108539;1268;24236;-75
2024/01/15 10:33:11;;;;;;;8.90;3.90;;;;;;;0.32;67.19;94608.40;108328;1267;22629;-76
2024/01/15 10:35:43;;;;;;;8.70;4.00;;;;;;;0.47;67.15;94599.46;108313;1270;23171;-76
2024/01/15 10:38:14;;;;;;;8.30;5.00;;;;;;;0.60;66.77;94597.15;108426;1267;22622;-75
2024/01/15 10:40:45;;;;;;;9.60;4.20;;;;;;;0.65;66.43;94599.32;108452;1274;22605;-75
2024/01/15 10:43:17;;;;;;;8.20;4.10;;;;;;;0.66;66.75;94600.30;108612;1267;23182;-75
2024/01/15 10:45:49;;;;;;;6.80;4.60;;;;;;;0.81;66.38;94592.70;108558;1270;22531;-76
2024/01/15 10:48:21;;;;;;;10.10;4.60;;;;;;;0.90;65.61;94587.72;108615;1273;22560;-76
2024/01/15 10:50:52;;;;;;;7.20;4.30;;;;;;;0.77;64.74;94583.23;108660;1270;22551;-75
2024/01/15 10:53:26;;;;;;;6.30;3.80;;;;;;;0.67;65.16;94584.96;108629;1267;22544;-75
2024/01/15 10:55:57;;;;;;;4.70;2.80;;;;;;;0.67;64.80;94587.52;108639;1267;23756;-76
2024/01/15 10:58:32;;;;;;;4.80;3.30;;;;;;;0.74;65.08;94589.13;108657;1273;48918;-76
2024/01/15 11:01:04;;;;;;;7.70;3.30;;;;;;;0.86;65.21;94594.56;108718;1273;22538;-76
2024/01/15 11:03:37;;;;;;;8.30;3.90;;;;;;;0.87;64.83;94581.95;108693;1267;22519;-76
2024/01/15 11:06:19;;;;;;;7.60;4.30;;;;;;;0.80;64.58;94573.92;108773;1267;22524;-76
2024/01/15 11:08:53;;;;;;;6.20;3.30;;;;;;;0.70;65.13;94581.98;108768;1267;22547;-75
2024/01/15 11:11:24;;;;;;;9.30;5.40;;;;;;;0.53;64.63;94581.67;108678;1272;22551;-76
2024/01/15 11:13:58;;;;;;;6.60;4.10;;;;;;;0.37;65.16;94585.77;108617;1267;22535;-76
2024/01/15 11:16:59;;;;;;;8.50;5.50;;;;;;;0.28;65.68;94587.19;108658;1270;22559;-76
2024/01/15 11:19:44;;;;;;;7.20;4.20;;;;;;;0.33;65.65;94575.10;108752;1273;22521;-75
2024/01/15 11:22:51;;;;;;;7.70;4.70;;;;;;;0.33;65.44;94591.67;108656;1273;23536;-75
2024/01/15 11:25:22;;;;;;;7.00;4.00;;;;;;;0.28;65.42;94592.71;108621;1263;22539;-76
2024/01/15 11:27:54;;;;;;;7.40;4.20;;;;;;;0.18;65.15;94597.00;108670;1273;22538;-75
2024/01/15 11:30:28;;;;;;;9.10;5.80;;;;;;;0.11;65.97;94585.23;108678;1270;22857;-75
2024/01/15 11:32:59;;;;;;;8.50;4.20;;;;;;;0.08;65.67;94584.61;108699;1267;22625;-76
2024/01/15 11:35:57;;;;;;;8.30;4.60;;;;;;;0.07;65.93;94575.44;108686;1273;23006;-75
2024/01/15 11:38:34;;;;;;;8.80;4.70;;;;;;;0.04;66.21;94577.79;108657;1273;44523;-76
2024/01/15 11:41:16;;;;;;;6.20;3.50;;;;;;;0.03;65.68;94573.41;108772;1273;22538;-75
2024/01/15 11:43:47;;;;;;;11.00;4.80;;;;;;;-0.05;66.26;94572.63;108675;1270;22533;-75
2024/01/15 11:46:22;;;;;;;8.90;5.20;;;;;;;0.01;66.69;94576.80;108663;1273;22569;-76
2024/01/15 11:49:04;;;;;;;7.50;3.60;;;;;;;0.07;65.78;94560.85;108679;1273;22534;-75
2024/01/15 11:51:39;;;;;;;7.50;4.30;;;;;;;-0.03;66.19;94570.38;108760;1273;24236;-76